Time;durP1;ratioP1;P1;durP2;ratioP2;P2;SDS_P1;SDS_P2;PMS_P1;PMS_P2;Temp;Humidity;BMP_temperature;BMP_pressure;BME280_temperature;BME280_humidity;BME280_pressure;Samples;Min_cycle;Max_cycle;Signal;HPM_P1;HPM_P2
2022/04/30 00:02:10;;;;;;;3.47;2.50;;;8.40;99.90;;;;;;5055823;28;20665;-54
2022/04/30 00:04:43;;;;;;;2.80;2.27;;;8.30;1.00;;;;;;5051278;28;20207;-55
2022/04/30 00:07:19;;;;;;;4.03;2.27;;;8.20;99.90;;;;;;5055043;28;20313;-55
2022/04/30 00:09:47;;;;;;;5.23;2.67;;;8.20;99.90;;;;;;5054086;28;20202;-54
2022/04/30 00:12:16;;;;;;;5.03;2.63;;;8.30;1.00;;;;;;5060565;28;20289;-57
2022/04/30 00:14:44;;;;;;;5.87;2.93;;;8.30;1.00;;;;;;5058338;28;20332;-55
2022/04/30 00:17:13;;;;;;;3.97;2.60;;;8.40;1.00;;;;;;5061612;28;20208;-56
2022/04/30 00:19:40;;;;;;;5.83;2.57;;;8.30;1.00;;;;;;5063063;28;20283;-55
2022/04/30 00:22:07;;;;;;;3.77;2.53;;;8.40;8.30;;;;;;5057420;28;20317;-57
2022/04/30 00:24:35;;;;;;;5.13;2.67;;;8.40;1.00;;;;;;5059105;28;20192;-55
2022/04/30 00:27:03;;;;;;;3.47;2.97;;;8.20;1.00;;;;;;5065769;28;20255;-56
2022/04/30 00:29:30;;;;;;;6.93;3.10;;;8.30;1.00;;;;;;5058682;28;20298;-55
2022/04/30 00:32:00;;;;;;;3.90;2.60;;;8.30;1.00;;;;;;5062099;28;20194;-56
2022/04/30 00:34:27;;;;;;;5.80;2.93;;;8.20;1.00;;;;;;5063009;28;20195;-55
2022/04/30 00:36:54;;;;;;;5.67;3.23;;;8.40;1.00;;;;;;5059342;28;20372;-56
2022/04/30 00:39:21;;;;;;;5.03;2.93;;;8.40;99.90;;;;;;5059946;28;20329;-57
2022/04/30 00:41:48;;;;;;;6.93;2.93;;;8.40;1.00;;;;;;5066390;28;20290;-55
2022/04/30 00:44:19;;;;;;;4.90;3.10;;;8.30;1.00;;;;;;5064406;28;20272;-55
2022/04/30 00:46:46;;;;;;;4.90;3.23;;;8.30;1.00;;;;;;5063597;28;20236;-55
2022/04/30 00:49:13;;;;;;;7.27;3.20;;;8.50;99.90;;;;;;5058274;28;20282;-55
2022/04/30 00:51:41;;;;;;;5.10;3.03;;;8.40;1.00;;;;;;5062696;28;20243;-55
2022/04/30 00:54:08;;;;;;;5.40;3.27;;;8.40;1.00;;;;;;5062725;28;20227;-55
2022/04/30 00:56:49;;;;;;;4.53;2.87;;;8.50;1.00;;;;;;5060659;28;20278;-56
2022/04/30 00:59:18;;;;;;;5.23;2.90;;;8.40;99.90;;;;;;5059307;28;20577;-57
2022/04/30 01:01:46;;;;;;;6.50;2.97;;;8.30;1.00;;;;;;5060373;28;20286;-55
2022/04/30 01:04:14;;;;;;;6.87;3.03;;;8.30;1.00;;;;;;5059731;28;20213;-54
2022/04/30 01:06:48;;;;;;;6.40;2.93;;;8.20;1.00;;;;;;5061641;28;20198;-55
2022/04/30 01:09:24;;;;;;;4.20;3.17;;;8.10;99.90;;;;;;5063322;28;20234;-55
2022/04/30 01:12:03;;;;;;;5.30;3.10;;;8.10;1.00;;;;;;5046885;28;20195;-55
2022/04/30 01:14:31;;;;;;;3.97;2.80;;;8.00;1.00;;;;;;5061949;28;20672;-57
2022/04/30 01:16:59;;;;;;;5.60;3.63;;;8.00;1.00;;;;;;5060645;28;20299;-56
2022/04/30 01:19:27;;;;;;;5.80;3.53;;;8.00;1.00;;;;;;5057665;28;20218;-57
2022/04/30 01:22:02;;;;;;;5.23;3.53;;;8.00;1.00;;;;;;5061352;28;20804;-55
2022/04/30 01:24:30;;;;;;;4.93;3.33;;;8.10;1.00;;;;;;5060089;28;20200;-55
2022/04/30 01:27:00;;;;;;;7.70;3.37;;;8.00;1.00;;;;;;5060605;28;20231;-55
2022/04/30 01:29:30;;;;;;;6.73;3.60;;;8.10;56.70;;;;;;5054080;28;20218;-55
2022/04/30 01:37:36;;;;;;;6.50;3.90;;;8.10;1.00;;;;;;5058033;28;20203;-55
2022/04/30 01:40:07;;;;;;;5.30;3.33;;;8.00;1.00;;;;;;5050025;28;20234;-55
2022/04/30 01:42:47;;;;;;;7.17;4.33;;;7.90;1.00;;;;;;5056010;28;20201;-55
2022/04/30 01:45:18;;;;;;;8.30;4.00;;;8.00;99.90;;;;;;5056781;28;20189;-56
2022/04/30 01:47:46;;;;;;;5.30;3.70;;;7.80;99.90;;;;;;5056618;28;20297;-55
2022/04/30 01:50:13;;;;;;;5.73;3.77;;;7.90;1.00;;;;;;5055210;28;20299;-55
2022/04/30 01:52:40;;;;;;;4.37;3.47;;;7.90;1.00;;;;;;5059368;28;20261;-55
2022/04/30 01:55:07;;;;;;;4.57;3.73;;;7.80;1.00;;;;;;5057777;28;20597;-54
2022/04/30 01:57:34;;;;;;;8.73;3.80;;;7.70;1.00;;;;;;5060716;28;20651;-55
2022/04/30 02:00:04;;;;;;;7.00;3.90;;;7.80;99.90;;;;;;5057041;28;20301;-55
2022/04/30 02:02:36;;;;;;;8.37;4.57;;;7.80;1.00;;;;;;5056642;28;20249;-54
2022/04/30 02:05:07;;;;;;;6.47;3.77;;;7.90;99.90;;;;;;5050593;28;21312;-53
2022/04/30 02:07:40;;;;;;;6.30;3.40;;;7.90;1.00;;;;;;5058859;28;20236;-55
2022/04/30 02:10:08;;;;;;;8.07;4.20;;;7.90;1.00;;;;;;5055814;28;20214;-55
2022/04/30 02:12:35;;;;;;;4.63;3.67;;;7.90;1.00;;;;;;5058634;28;20261;-54
2022/04/30 02:15:02;;;;;;;8.00;4.37;;;7.90;1.00;;;;;;5056503;28;20193;-54
2022/04/30 02:17:30;;;;;;;6.50;4.33;;;7.70;1.00;;;;;;5057936;28;20224;-55
2022/04/30 02:22:49;;;;;;;6.70;4.20;;;7.80;1.00;;;;;;5056557;28;20262;-56
2022/04/30 02:25:17;;;;;;;6.10;4.30;;;7.70;1.00;;;;;;5057465;28;20214;-55
2022/04/30 02:27:46;;;;;;;7.23;4.40;;;7.70;99.90;;;;;;5052854;28;20207;-52
2022/04/30 02:30:14;;;;;;;7.17;4.13;;;7.80;1.00;;;;;;5057493;28;20218;-55
2022/04/30 02:32:46;;;;;;;7.33;4.80;;;7.80;1.00;;;;;;5059284;28;20291;-56
2022/04/30 02:35:16;;;;;;;8.40;4.03;;;7.90;1.00;;;;;;5059474;28;20223;-55
2022/04/30 02:37:44;;;;;;;8.20;4.53;;;7.70;1.00;;;;;;5053386;28;20934;-55
2022/04/30 02:40:13;;;;;;;8.83;4.77;;;7.60;1.00;;;;;;5055480;28;21068;-53
2022/04/30 02:42:47;;;;;;;8.43;4.83;;;7.60;1.00;;;;;;5057761;28;20692;-53
2022/04/30 02:45:15;;;;;;;6.60;4.37;;;7.60;1.00;;;;;;5058329;28;21246;-53
2022/04/30 02:47:45;;;;;;;7.50;5.13;;;7.60;1.00;;;;;;5055493;28;20195;-54
2022/04/30 02:50:13;;;;;;;10.23;5.27;;;7.70;1.00;;;;;;5056460;28;20707;-56
2022/04/30 02:52:42;;;;;;;7.80;4.43;;;7.70;1.00;;;;;;5057519;28;20244;-54
2022/04/30 02:55:10;;;;;;;9.13;4.67;;;7.70;99.90;;;;;;5054257;28;20197;-55
2022/04/30 03:00:34;;;;;;;8.50;4.67;;;7.90;21.20;;;;;;5061271;28;20198;-55
2022/04/30 03:03:01;;;;;;;9.90;5.17;;;7.80;99.90;;;;;;5055189;28;20607;-55
2022/04/30 03:05:29;;;;;;;8.10;5.77;;;7.80;1.00;;;;;;5055953;28;20218;-54
2022/04/30 03:07:58;;;;;;;8.50;4.93;;;7.80;1.00;;;;;;5060521;28;20227;-55
2022/04/30 03:10:25;;;;;;;7.40;5.03;;;7.70;99.90;;;;;;5056857;28;20245;-55
2022/04/30 03:12:52;;;;;;;11.50;5.17;;;7.80;1.00;;;;;;5058354;28;20214;-57
2022/04/30 03:15:21;;;;;;;9.87;5.20;;;7.90;1.00;;;;;;5056974;28;20298;-55
2022/04/30 03:23:20;;;;;;;8.40;5.00;;;7.80;1.00;;;;;;5056963;28;20267;-56
2022/04/30 03:25:47;;;;;;;9.23;4.60;;;7.80;1.00;;;;;;5060065;28;20242;-55
2022/04/30 03:28:14;;;;;;;6.47;5.20;;;7.70;1.00;;;;;;5057146;28;20271;-55
2022/04/30 03:30:40;;;;;;;6.20;4.60;;;7.80;99.90;;;;;;5060123;28;21059;-55
2022/04/30 03:33:08;;;;;;;6.33;5.17;;;7.90;1.00;;;;;;5038633;28;20205;-55
2022/04/30 03:35:39;;;;;;;8.57;4.77;;;7.90;44.40;;;;;;5055626;28;20651;-56
2022/04/30 03:38:06;;;;;;;6.47;5.03;;;7.90;1.00;;;;;;5059527;28;20210;-55
2022/04/30 03:40:39;;;;;;;8.80;5.07;;;8.00;99.90;;;;;;5057777;28;20313;-54
2022/04/30 03:43:07;;;;;;;7.57;4.67;;;7.90;1.00;;;;;;5055353;28;20344;-55
2022/04/30 03:45:34;;;;;;;10.07;5.03;;;8.00;99.90;;;;;;5054989;28;20279;-56
2022/04/30 03:48:01;;;;;;;7.13;4.70;;;7.80;1.00;;;;;;5055385;28;20627;-55
2022/04/30 03:50:28;;;;;;;5.97;4.27;;;7.90;99.90;;;;;;5060635;28;20238;-55
2022/04/30 03:52:54;;;;;;;9.97;5.07;;;7.90;1.00;;;;;;5057414;28;20199;-55
2022/04/30 03:55:22;;;;;;;6.50;4.80;;;7.90;1.00;;;;;;5056004;28;20226;-55
2022/04/30 03:57:49;;;;;;;9.20;5.00;;;7.90;99.90;;;;;;5056401;28;20235;-54
2022/04/30 04:00:16;;;;;;;7.97;4.57;;;7.80;73.70;;;;;;5055068;28;20258;-56
2022/04/30 04:02:43;;;;;;;6.80;4.50;;;7.70;1.00;;;;;;5055192;28;20291;-54
2022/04/30 04:05:12;;;;;;;5.20;4.67;;;7.80;1.00;;;;;;5051203;28;20284;-55
2022/04/30 04:07:40;;;;;;;7.53;5.20;;;7.80;1.00;;;;;;5053273;28;20517;-55
2022/04/30 04:10:09;;;;;;;7.40;4.50;;;7.80;1.00;;;;;;5056518;28;20770;-55
2022/04/30 04:12:40;;;;;;;7.37;5.30;;;7.80;99.90;;;;;;5054929;28;20203;-55
2022/04/30 04:17:54;;;;;;;10.87;5.83;;;7.70;1.00;;;;;;5049746;28;20306;-54
2022/04/30 04:20:24;;;;;;;7.97;5.63;;;7.70;1.00;;;;;;5055948;28;20216;-55
2022/04/30 04:22:55;;;;;;;9.03;4.93;;;7.70;1.00;;;;;;5050890;28;20289;-53
2022/04/30 04:28:08;;;;;;;11.53;5.47;;;7.70;1.00;;;;;;5048487;28;20207;-57
2022/04/30 04:30:35;;;;;;;8.40;5.37;;;7.60;1.00;;;;;;5051890;28;20200;-55
2022/04/30 04:33:02;;;;;;;7.77;5.20;;;7.70;1.00;;;;;;5053752;28;20614;-55
2022/04/30 04:35:29;;;;;;;8.40;5.53;;;7.50;1.00;;;;;;5051640;28;20200;-55
2022/04/30 04:37:56;;;;;;;10.10;6.00;;;7.70;1.00;;;;;;5052202;28;20596;-56
2022/04/30 04:40:23;;;;;;;9.77;5.37;;;7.70;1.00;;;;;;5051110;28;20324;-56
2022/04/30 04:42:50;;;;;;;9.33;5.33;;;7.80;99.90;;;;;;5056456;28;20204;-55
2022/04/30 04:45:17;;;;;;;7.47;5.17;;;7.80;1.00;;;;;;5054500;28;20291;-57
2022/04/30 04:47:49;;;;;;;8.30;5.23;;;7.90;1.00;;;;;;5053215;28;20549;-54
2022/04/30 04:50:16;;;;;;;9.40;5.50;;;7.90;1.00;;;;;;5057348;28;20699;-57
2022/04/30 04:52:44;;;;;;;8.73;5.03;;;7.90;96.70;;;;;;5057683;28;20357;-58
2022/04/30 04:55:11;;;;;;;8.10;5.20;;;7.70;1.00;;;;;;5056812;28;20224;-56
2022/04/30 04:57:38;;;;;;;9.27;5.30;;;7.60;1.00;;;;;;5058175;28;20195;-61
2022/04/30 05:00:07;;;;;;;15.13;6.17;;;7.80;1.00;;;;;;5061703;28;20358;-55
2022/04/30 05:02:34;;;;;;;7.10;5.47;;;7.90;39.50;;;;;;5063147;28;20293;-56
2022/04/30 05:05:02;;;;;;;7.50;5.13;;;7.90;99.90;;;;;;5055359;28;20291;-55
2022/04/30 05:07:28;;;;;;;7.17;5.43;;;8.00;1.00;;;;;;5063550;28;20660;-56
2022/04/30 05:09:55;;;;;;;9.77;5.40;;;8.00;1.00;;;;;;5056263;28;22232;-56
2022/04/30 05:12:22;;;;;;;9.67;5.97;;;7.90;99.90;;;;;;5059894;28;20207;-53
2022/04/30 05:14:52;;;;;;;12.90;5.70;;;8.00;1.00;;;;;;5061268;28;20656;-55
2022/04/30 05:17:19;;;;;;;8.50;5.30;;;8.00;1.00;;;;;;5059471;28;20223;-55
2022/04/30 05:19:46;;;;;;;10.70;5.57;;;7.90;1.00;;;;;;5059487;28;20683;-54
2022/04/30 05:22:14;;;;;;;8.73;5.50;;;8.10;1.00;;;;;;5059566;28;20326;-54
2022/04/30 05:24:41;;;;;;;9.00;5.67;;;7.90;1.00;;;;;;5060344;28;20206;-57
2022/04/30 05:27:08;;;;;;;9.20;5.20;;;8.00;1.00;;;;;;5060865;28;20299;-57
2022/04/30 05:29:35;;;;;;;9.43;5.60;;;8.20;1.00;;;;;;5056443;28;20697;-56
2022/04/30 05:32:04;;;;;;;9.67;5.70;;;8.00;1.00;;;;;;5061151;28;20592;-55
2022/04/30 05:34:31;;;;;;;7.40;5.03;;;7.90;1.00;;;;;;5056234;28;20199;-56
2022/04/30 05:36:58;;;;;;;8.30;5.30;;;8.00;1.00;;;;;;5056823;28;20280;-54
2022/04/30 05:39:26;;;;;;;9.57;5.00;;;8.10;94.80;;;;;;5056539;28;20620;-54
2022/04/30 05:41:53;;;;;;;7.83;5.07;;;8.20;1.00;;;;;;5061172;28;20273;-56
2022/04/30 05:44:20;;;;;;;8.47;5.67;;;8.20;1.00;;;;;;5054072;28;20204;-55
2022/04/30 05:46:46;;;;;;;5.67;5.07;;;8.20;27.40;;;;;;5055847;28;20687;-55
2022/04/30 05:49:14;;;;;;;8.70;5.33;;;8.40;1.00;;;;;;5059635;28;20296;-55
2022/04/30 05:51:41;;;;;;;9.80;5.23;;;8.30;1.00;;;;;;5043098;28;20223;-57
2022/04/30 05:54:08;;;;;;;9.37;6.10;;;8.30;1.00;;;;;;5058536;28;20648;-55
2022/04/30 05:56:35;;;;;;;10.10;5.07;;;8.50;1.00;;;;;;5060905;28;20225;-55
2022/04/30 05:59:02;;;;;;;7.70;4.77;;;8.60;1.00;;;;;;5045430;28;20707;-55
2022/04/30 06:01:29;;;;;;;10.03;5.90;;;8.60;99.90;;;;;;5054545;28;20673;-58
2022/04/30 06:03:56;;;;;;;6.57;4.33;;;8.70;1.00;;;;;;5055674;28;20231;-55
2022/04/30 06:06:23;;;;;;;7.30;4.40;;;8.70;1.00;;;;;;5059233;28;20661;-56
2022/04/30 06:08:50;;;;;;;9.23;4.70;;;8.70;1.00;;;;;;5058883;28;20246;-54
2022/04/30 06:11:17;;;;;;;9.33;4.90;;;8.60;1.00;;;;;;5056475;28;20344;-55
2022/04/30 06:13:43;;;;;;;5.63;4.40;;;8.60;99.90;;;;;;5058367;28;20219;-55
2022/04/30 06:16:10;;;;;;;8.80;5.03;;;8.80;1.00;;;;;;5061778;28;20242;-57
2022/04/30 06:18:37;;;;;;;6.87;4.77;;;8.90;99.90;;;;;;5054486;28;20295;-55
2022/04/30 06:21:24;;;;;;;7.87;5.27;;;9.10;1.00;;;;;;5037245;28;20208;-54
2022/04/30 06:23:51;;;;;;;10.87;4.47;;;9.20;1.00;;;;;;5058356;28;20198;-54
2022/04/30 06:26:17;;;;;;;6.43;3.97;;;9.10;1.00;;;;;;5056626;28;20287;-54
2022/04/30 06:28:44;;;;;;;7.50;5.20;;;9.30;99.90;;;;;;5057274;28;20189;-55
2022/04/30 06:31:11;;;;;;;6.97;4.63;;;9.20;99.90;;;;;;5058407;28;20238;-56
2022/04/30 06:33:38;;;;;;;6.20;4.47;;;9.20;1.00;;;;;;5054791;28;20613;-55
2022/04/30 06:36:05;;;;;;;6.63;4.40;;;9.30;1.00;;;;;;5058858;28;20275;-55
2022/04/30 06:38:32;;;;;;;11.17;4.30;;;9.50;1.00;;;;;;5057221;28;20636;-53
2022/04/30 06:40:59;;;;;;;6.87;4.00;;;9.30;1.00;;;;;;5055656;28;20292;-55
2022/04/30 06:43:25;;;;;;;6.43;3.93;;;9.70;1.00;;;;;;5056225;28;20643;-55
2022/04/30 06:45:52;;;;;;;6.13;4.33;;;9.70;99.90;;;;;;5054716;28;20241;-55
2022/04/30 06:48:19;;;;;;;9.63;4.40;;;9.60;1.00;;;;;;5054077;28;20223;-54
2022/04/30 06:50:47;;;;;;;6.13;3.87;;;9.60;1.00;;;;;;5058439;28;20302;-55
2022/04/30 06:58:50;;;;;;;5.53;4.10;;;10.20;1.00;;;;;;5054425;28;20203;-56
2022/04/30 07:03:51;;;;;;;5.43;3.20;;;10.80;99.90;;;;;;5066000;28;20297;-54
2022/04/30 07:06:18;;;;;;;6.20;3.87;;;10.70;1.00;;;;;;5052639;28;20230;-57
2022/04/30 07:08:46;;;;;;;6.70;3.80;;;10.70;1.00;;;;;;5056323;28;20289;-56
2022/04/30 07:11:12;;;;;;;6.97;4.13;;;10.80;1.00;;;;;;5046204;28;20225;-55
2022/04/30 07:13:39;;;;;;;7.20;4.00;;;10.90;1.00;;;;;;5060598;28;20194;-55
2022/04/30 07:16:06;;;;;;;6.37;3.90;;;10.60;1.00;;;;;;5064449;28;20204;-55
2022/04/30 07:18:33;;;;;;;5.77;3.57;;;10.40;99.90;;;;;;5062702;28;20280;-54
2022/04/30 07:21:00;;;;;;;5.10;3.50;;;10.40;1.00;;;;;;5062442;28;20208;-57
2022/04/30 07:23:26;;;;;;;5.33;3.77;;;10.30;99.90;;;;;;5061497;28;20743;-54
2022/04/30 07:25:53;;;;;;;5.90;3.40;;;10.40;99.90;;;;;;5062202;28;20334;-54
2022/04/30 07:28:22;;;;;;;5.43;4.20;;;10.60;99.90;;;;;;5064386;28;20332;-56
2022/04/30 07:30:52;;;;;;;4.63;3.70;;;10.80;1.00;;;;;;5053809;28;20588;-55
2022/04/30 07:33:19;;;;;;;5.57;4.17;;;11.10;1.00;;;;;;5054232;28;20202;-54
2022/04/30 07:35:46;;;;;;;5.97;3.83;;;11.20;1.00;;;;;;5052658;28;20213;-54
2022/04/30 07:38:12;;;;;;;9.03;4.10;;;11.00;99.90;;;;;;5061505;28;20278;-54
2022/04/30 07:40:39;;;;;;;4.40;3.53;;;11.30;99.90;;;;;;5040504;28;20318;-54
2022/04/30 07:43:06;;;;;;;5.30;4.13;;;11.40;99.90;;;;;;5062228;28;20288;-54
2022/04/30 07:45:33;;;;;;;7.30;4.70;;;11.50;1.00;;;;;;5055897;28;20292;-54
2022/04/30 07:48:00;;;;;;;6.80;4.30;;;11.60;99.90;;;;;;5056224;28;20947;-55
2022/04/30 07:50:30;;;;;;;7.07;3.70;;;11.50;1.00;;;;;;5053635;28;20247;-54
2022/04/30 07:52:57;;;;;;;5.00;3.70;;;11.00;1.00;;;;;;5058016;28;20202;-56
2022/04/30 07:55:28;;;;;;;7.60;4.07;;;11.00;99.90;;;;;;5059226;28;20198;-54
2022/04/30 07:57:54;;;;;;;5.73;4.20;;;10.90;1.00;;;;;;5060608;28;20198;-54
2022/04/30 08:00:21;;;;;;;5.03;3.87;;;11.10;2.70;;;;;;5052841;28;20373;-55
2022/04/30 08:02:48;;;;;;;7.90;4.30;;;11.20;1.00;;;;;;5054820;28;20325;-53
2022/04/30 08:05:16;;;;;;;5.47;3.77;;;11.30;1.00;;;;;;5045439;28;20466;-54
2022/04/30 08:07:43;;;;;;;5.57;3.77;;;11.00;1.00;;;;;;5045413;28;22201;-54
2022/04/30 08:10:09;;;;;;;7.30;4.13;;;10.80;99.90;;;;;;5052788;28;20322;-54
2022/04/30 08:12:36;;;;;;;5.20;3.90;;;11.20;1.00;;;;;;5052396;28;20732;-56
2022/04/30 08:15:04;;;;;;;6.13;3.67;;;10.90;99.90;;;;;;5055086;28;20281;-55
2022/04/30 08:17:30;;;;;;;9.07;4.40;;;10.80;1.00;;;;;;5049903;28;20199;-57
2022/04/30 08:19:57;;;;;;;6.87;4.23;;;10.90;1.00;;;;;;5036246;28;20263;-54
2022/04/30 08:22:24;;;;;;;7.07;4.40;;;10.90;1.00;;;;;;5053607;28;20249;-55
2022/04/30 08:24:51;;;;;;;4.80;3.93;;;11.00;1.00;;;;;;5058513;28;20293;-55
2022/04/30 08:27:17;;;;;;;5.63;3.80;;;11.20;1.00;;;;;;5039365;28;20360;-54
2022/04/30 08:29:44;;;;;;;6.13;3.53;;;11.20;1.00;;;;;;5052784;28;20298;-54
2022/04/30 08:32:11;;;;;;;5.03;3.93;;;11.20;1.00;;;;;;5054263;28;20270;-55
2022/04/30 08:34:38;;;;;;;10.17;4.20;;;11.30;1.00;;;;;;5056172;28;20199;-54
2022/04/30 08:37:05;;;;;;;7.10;6.40;;;11.30;1.00;;;;;;5056674;28;20191;-54
2022/04/30 08:39:32;;;;;;;7.73;3.63;;;11.60;1.00;;;;;;5058204;28;20240;-55
2022/04/30 08:41:59;;;;;;;5.63;3.97;;;11.40;78.80;;;;;;5059941;28;20218;-55
2022/04/30 08:44:25;;;;;;;9.77;4.20;;;11.70;99.90;;;;;;5052739;28;20293;-58
2022/04/30 08:46:53;;;;;;;4.80;3.93;;;11.80;1.00;;;;;;5055566;28;20202;-55
2022/04/30 08:49:21;;;;;;;6.37;4.23;;;11.60;1.00;;;;;;5051121;28;20211;-54
2022/04/30 08:51:48;;;;;;;4.90;3.70;;;11.90;1.00;;;;;;5058925;28;20189;-55
2022/04/30 08:54:14;;;;;;;6.27;4.07;;;11.90;1.00;;;;;;5066389;28;20183;-57
2022/04/30 08:56:59;;;;;;;6.23;3.57;;;12.20;1.00;;;;;;5064684;28;20227;-61
2022/04/30 08:59:27;;;;;;;5.87;4.30;;;12.10;1.00;;;;;;5066360;28;20341;-54
2022/04/30 09:01:58;;;;;;;8.47;4.87;;;11.80;1.00;;;;;;5068314;28;20222;-56
2022/04/30 09:04:39;;;;;;;4.90;4.00;;;11.80;1.00;;;;;;5048848;28;20321;-55
2022/04/30 09:07:13;;;;;;;8.63;3.93;;;11.80;1.00;;;;;;5066081;28;20214;-55
2022/04/30 09:09:40;;;;;;;5.07;4.00;;;11.70;1.00;;;;;;5045253;28;20215;-55
2022/04/30 09:12:13;;;;;;;7.43;4.53;;;11.80;1.00;;;;;;5063812;28;20236;-55
2022/04/30 09:14:41;;;;;;;8.43;4.53;;;12.00;1.00;;;;;;5060871;28;20210;-55
2022/04/30 09:17:12;;;;;;;6.17;4.50;;;11.80;1.00;;;;;;5061308;28;20850;-54
2022/04/30 09:19:56;;;;;;;5.00;4.37;;;11.80;1.00;;;;;;5062500;28;20258;-57
2022/04/30 09:22:28;;;;;;;4.90;3.80;;;11.90;1.00;;;;;;5064478;28;20218;-55
2022/04/30 09:24:55;;;;;;;6.70;3.50;;;11.90;1.00;;;;;;5065908;28;20249;-57
2022/04/30 09:27:45;;;;;;;4.33;3.40;;;12.00;99.90;;;;;;5068223;28;20265;-55
2022/04/30 09:30:29;;;;;;;4.80;3.87;;;12.20;99.90;;;;;;5067491;28;20219;-55
2022/04/30 09:33:03;;;;;;;3.80;3.37;;;12.30;99.90;;;;;;5061619;28;20276;-56
2022/04/30 09:38:17;;;;;;;3.67;2.93;;;12.50;99.90;;;;;;5064893;28;20336;-54
2022/04/30 09:40:58;;;;;;;3.17;2.27;;;12.80;1.00;;;;;;5069522;28;20646;-55
2022/04/30 09:43:29;;;;;;;3.00;2.37;;;12.70;1.00;;;;;;5062616;28;20199;-54
2022/04/30 09:46:07;;;;;;;2.40;2.07;;;13.10;1.00;;;;;;5059901;28;20295;-54
2022/04/30 09:54:07;;;;;;;3.43;2.73;;;12.80;1.00;;;;;;5062317;28;20187;-56
2022/04/30 09:56:44;;;;;;;6.43;2.70;;;13.00;1.00;;;;;;5064722;28;20207;-55
2022/04/30 09:59:13;;;;;;;4.83;3.83;;;13.40;1.00;;;;;;5048532;28;20555;-54
2022/04/30 10:01:42;;;;;;;5.17;3.10;;;13.60;1.00;;;;;;5064467;28;20237;-54
2022/04/30 10:04:14;;;;;;;4.03;2.87;;;13.50;1.00;;;;;;5063312;28;20274;-54
2022/04/30 10:06:45;;;;;;;4.70;2.70;;;13.30;1.00;;;;;;5062429;28;20199;-54
2022/04/30 10:09:38;;;;;;;6.50;2.97;;;13.80;1.00;;;;;;5066264;28;20556;-55
2022/04/30 10:12:31;;;;;;;6.47;2.77;;;13.40;1.00;;;;;;5060704;28;20843;-54
2022/04/30 10:15:23;;;;;;;3.47;2.70;;;13.40;1.00;;;;;;5061360;28;20755;-54
2022/04/30 10:17:57;;;;;;;4.63;2.73;;;13.70;1.00;;;;;;5059749;28;20196;-55
2022/04/30 10:20:29;;;;;;;4.73;2.70;;;13.90;99.90;;;;;;5062250;28;20200;-55
2022/04/30 10:22:59;;;;;;;4.10;2.80;;;13.30;1.00;;;;;;5061320;28;20362;-54
2022/04/30 10:25:48;;;;;;;3.40;2.30;;;13.70;99.90;;;;;;5061220;28;20580;-56
2022/04/30 10:28:23;;;;;;;5.33;2.80;;;13.70;1.00;;;;;;5061675;28;20876;-55
2022/04/30 10:31:04;;;;;;;5.27;3.10;;;13.90;99.90;;;;;;5060879;28;20210;-55
2022/04/30 10:33:33;;;;;;;2.93;2.60;;;14.10;99.90;;;;;;5055568;28;20201;-55
2022/04/30 10:36:08;;;;;;;3.47;2.80;;;14.10;99.90;;;;;;5060973;28;20231;-54
2022/04/30 10:38:35;;;;;;;4.97;2.93;;;14.10;99.90;;;;;;5057702;28;20595;-53
2022/04/30 10:41:04;;;;;;;5.53;3.40;;;14.00;99.90;;;;;;5056797;28;20230;-55
2022/04/30 10:43:36;;;;;;;3.87;2.80;;;14.30;99.90;;;;;;5060641;28;20298;-54
2022/04/30 10:46:13;;;;;;;2.70;2.50;;;14.50;99.90;;;;;;5060568;28;20209;-55
2022/04/30 10:48:40;;;;;;;4.03;2.57;;;14.60;99.90;;;;;;5054020;28;20791;-54
2022/04/30 10:51:11;;;;;;;3.97;2.80;;;14.70;99.90;;;;;;5059007;28;20221;-54
2022/04/30 10:53:43;;;;;;;3.17;2.50;;;14.80;99.90;;;;;;5062279;28;20291;-54
2022/04/30 10:56:10;;;;;;;3.70;2.27;;;14.70;99.90;;;;;;5059931;28;20569;-54
2022/04/30 10:58:39;;;;;;;4.20;2.50;;;14.20;99.90;;;;;;5059241;28;20307;-55
2022/04/30 11:01:20;;;;;;;3.63;2.27;;;14.10;99.90;;;;;;5055031;28;20203;-55
2022/04/30 11:03:49;;;;;;;3.40;2.67;;;14.20;99.90;;;;;;5059879;28;20832;-55
2022/04/30 11:06:21;;;;;;;3.90;3.10;;;14.00;99.90;;;;;;5058086;28;20740;-53
2022/04/30 11:09:02;;;;;;;3.47;3.07;;;13.80;99.90;;;;;;5058059;28;20713;-55
2022/04/30 11:11:29;;;;;;;6.10;3.80;;;13.80;99.90;;;;;;5059395;28;20211;-55
2022/04/30 11:14:08;;;;;;;4.17;3.50;;;13.60;1.00;;;;;;5055943;28;20220;-54
2022/04/30 11:16:45;;;;;;;6.90;3.80;;;13.30;1.00;;;;;;5046177;28;20257;-55
2022/04/30 11:19:14;;;;;;;7.57;3.80;;;13.10;1.00;;;;;;5060163;28;20198;-56
2022/04/30 11:21:43;;;;;;;5.37;3.93;;;12.90;1.00;;;;;;5061633;28;20752;-55
2022/04/30 11:24:11;;;;;;;6.73;4.40;;;12.80;1.00;;;;;;5060463;28;20235;-54
2022/04/30 11:26:43;;;;;;;6.83;3.83;;;12.80;1.00;;;;;;5060873;28;20192;-61
2022/04/30 11:29:13;;;;;;;5.67;4.07;;;12.60;1.00;;;;;;5058062;28;20249;-60
2022/04/30 11:31:43;;;;;;;7.77;3.97;;;12.50;1.00;;;;;;5063100;28;20217;-59
2022/04/30 11:34:17;;;;;;;6.27;4.07;;;12.50;1.00;;;;;;5056584;28;20657;-54
2022/04/30 11:36:50;;;;;;;7.33;4.23;;;12.40;1.00;;;;;;5063960;28;20195;-56
2022/04/30 11:39:19;;;;;;;4.63;3.90;;;12.20;58.60;;;;;;5061572;28;20542;-54
2022/04/30 11:41:48;;;;;;;6.17;3.87;;;12.20;99.90;;;;;;5064581;28;20286;-61
2022/04/30 11:44:18;;;;;;;7.17;4.43;;;12.40;99.90;;;;;;5045449;28;20214;-55
2022/04/30 11:46:46;;;;;;;5.37;4.03;;;12.30;99.90;;;;;;5064360;28;20265;-54
2022/04/30 11:49:17;;;;;;;6.37;4.07;;;12.30;99.90;;;;;;5063222;28;20203;-53
2022/04/30 11:52:05;;;;;;;4.23;3.67;;;12.40;99.90;;;;;;5063617;28;20237;-55
2022/04/30 11:54:37;;;;;;;7.73;4.17;;;12.20;99.90;;;;;;5062972;28;20248;-56
2022/04/30 11:57:05;;;;;;;5.40;4.10;;;12.40;99.90;;;;;;5059547;28;20247;-55
2022/04/30 11:59:36;;;;;;;8.17;3.93;;;12.40;99.90;;;;;;5062064;28;20547;-55
2022/04/30 12:02:08;;;;;;;6.53;4.30;;;12.30;99.90;;;;;;5063026;28;20294;-55
2022/04/30 12:04:41;;;;;;;5.27;3.80;;;12.20;1.00;;;;;;5059547;28;20248;-54
2022/04/30 12:07:10;;;;;;;7.43;4.10;;;12.40;99.90;;;;;;5064846;28;20248;-54
2022/04/30 12:09:38;;;;;;;7.83;5.50;;;12.40;1.00;;;;;;5061061;28;20210;-54
2022/04/30 12:12:25;;;;;;;5.30;3.63;;;12.50;99.90;;;;;;5055429;28;20222;-55
2022/04/30 12:14:54;;;;;;;6.93;3.93;;;12.50;99.90;;;;;;5058202;28;20221;-54
2022/04/30 12:17:31;;;;;;;6.20;4.57;;;12.60;99.90;;;;;;5063150;28;20541;-55
2022/04/30 12:26:03;;;;;;;6.13;3.90;;;12.80;1.00;;;;;;5062359;28;20191;-54
2022/04/30 12:28:43;;;;;;;3.73;3.33;;;12.40;5.80;;;;;;5057717;28;20270;-53
2022/04/30 12:31:10;;;;;;;6.73;3.33;;;12.50;86.30;;;;;;5062740;28;20218;-53
2022/04/30 12:33:45;;;;;;;8.47;3.63;;;12.40;99.90;;;;;;5061534;28;20218;-55
2022/04/30 12:36:13;;;;;;;3.90;3.40;;;12.60;40.70;;;;;;5062830;28;20221;-55
2022/04/30 12:38:50;;;;;;;8.10;4.13;;;12.70;36.40;;;;;;5054513;28;20212;-54
2022/04/30 12:41:17;;;;;;;6.50;3.93;;;12.50;99.90;;;;;;5056322;28;20280;-54
2022/04/30 12:43:44;;;;;;;7.33;5.03;;;12.60;99.90;;;;;;5056048;28;20218;-54
2022/04/30 12:46:19;;;;;;;7.00;3.60;;;12.70;35.30;;;;;;5054210;28;20266;-54
2022/04/30 12:48:46;;;;;;;4.87;3.97;;;12.50;99.90;;;;;;5057006;28;20746;-56
2022/04/30 12:51:14;;;;;;;5.00;3.70;;;12.60;54.80;;;;;;5064119;28;20243;-55
2022/04/30 12:53:41;;;;;;;6.50;4.13;;;12.50;49.00;;;;;;5060073;28;20292;-55
2022/04/30 12:56:07;;;;;;;7.07;3.93;;;12.50;24.40;;;;;;5051708;28;20300;-52
2022/04/30 12:58:35;;;;;;;5.37;3.90;;;12.50;99.90;;;;;;5053230;28;20671;-54
2022/04/30 13:01:02;;;;;;;7.13;3.97;;;12.50;90.00;;;;;;5057214;28;21143;-55
2022/04/30 13:03:31;;;;;;;5.77;3.67;;;12.40;99.90;;;;;;5047720;28;20344;-54
2022/04/30 13:05:58;;;;;;;5.33;3.33;;;12.40;86.70;;;;;;5062123;28;20207;-55
2022/04/30 13:13:30;;;;;;;5.20;3.50;;;12.30;55.60;;;;;;5052798;28;20638;-54
2022/04/30 13:13:57;;;;;;;6.37;3.63;;;12.60;15.40;;;;;;5063094;28;20648;-55
2022/04/30 13:16:24;;;;;;;3.90;3.23;;;12.70;88.10;;;;;;5060753;28;20655;-54
2022/04/30 13:18:50;;;;;;;4.90;3.30;;;13.00;1.00;;;;;;5058989;28;20282;-54
2022/04/30 13:21:17;;;;;;;5.13;3.90;;;13.00;1.00;;;;;;5057620;28;20662;-55
2022/04/30 13:23:44;;;;;;;5.13;3.63;;;13.00;1.00;;;;;;5057944;28;20203;-55
2022/04/30 13:26:17;;;;;;;5.53;3.37;;;12.70;1.00;;;;;;5062069;28;20199;-54
2022/04/30 13:28:43;;;;;;;4.40;3.50;;;13.00;1.00;;;;;;5064738;28;20340;-55
2022/04/30 13:31:10;;;;;;;6.63;4.00;;;13.20;1.00;;;;;;5061942;28;20657;-55
2022/04/30 13:33:38;;;;;;;5.53;3.80;;;13.20;1.00;;;;;;5061807;28;20248;-55
2022/04/30 13:36:06;;;;;;;8.87;4.00;;;13.30;1.00;;;;;;5060289;28;20296;-55
2022/04/30 13:38:34;;;;;;;6.33;4.00;;;13.10;1.00;;;;;;5065943;28;20296;-55
2022/04/30 13:41:01;;;;;;;4.37;3.50;;;13.20;1.00;;;;;;5064373;28;20649;-55
2022/04/30 13:43:28;;;;;;;7.17;3.43;;;13.40;1.00;;;;;;5058752;28;20671;-54
2022/04/30 13:45:55;;;;;;;5.60;3.80;;;13.50;1.00;;;;;;5038183;28;20207;-55
2022/04/30 13:48:23;;;;;;;7.50;3.50;;;13.70;1.00;;;;;;5060338;28;20225;-55
2022/04/30 13:50:52;;;;;;;6.40;3.67;;;13.50;1.00;;;;;;5062312;28;20280;-54
2022/04/30 13:53:19;;;;;;;5.93;3.87;;;13.70;1.00;;;;;;5065877;28;20702;-55
2022/04/30 13:55:46;;;;;;;4.83;3.77;;;13.60;1.00;;;;;;5066298;28;20228;-55
2022/04/30 13:58:13;;;;;;;5.07;3.80;;;13.60;1.00;;;;;;5064100;28;20561;-55